Bull Shoals, AR

4:55 AM CST on March 05, 2015 (GMT -0600)
Baxter County Regional | Change Station
CLOSE
Current Station
Airport
Location: Mountain Home,
Elevation: 925 ft
Nearby Weather Stations

Elev 925 ft 36.37 °N, 92.47 °W | Updated 1 hour ago

Partly Cloudy
Partly Cloudy
20 °F
Feels Like 15 °F
N
4
Wind Variable Wind from NNW

Today
High -- | Low -- °F
--% Chance of Precip.
Yesterday
High -- | Low -- °F
Precip. -- in
6:35 AM 6:08 PM
Full, 100% visible
Pressure 30.41 in
Visibility 10.0 miles
Clouds Scattered Clouds 5500 ft
Windchill 15 °F
Dew Point 13 °F
Humidity 74%
Rainfall 0.00 in
Snow Depth Not available.
UV 0 out of 12
Pollen .70 out of 12
Air Quality Not available.
Flu Activity Not available.
METAR KBPK 050953Z AUTO 34003KT 10SM SCT055 M07/M11 A3038 RMK AO2 SLP298 T10671106 PNO $

More Conditions Fewer Conditions

Pressure 30.41 in
Visibility 10.0 miles
Clouds Scattered Clouds 5500 ft
Windchill 15 °F
Dew Point 13 °F
Humidity 74%
Rainfall 0.00 in
Snow Depth Not available.
UV 0 out of 12
Pollen .70 out of 12
Air Quality Not available.
Flu Activity Not available.
METAR KBPK 050953Z AUTO 34003KT 10SM SCT055 M07/M11 A3038 RMK AO2 SLP298 T10671106 PNO $

More Conditions Fewer Conditions

10-Day Weather Forecast

Almanac

Astronomy

Mar. 05, 2015 Rise Set
Actual Time
Civil Twilight
Nautical Twilight
Astronomical Twilight
Moon
Length of Visible Light
Length of Day
Tomorrow will be .
, % of the Moon is Illuminated

Today's Extremes

State Highs State Lows

Community

WunderPhotos

Upload Photos

1,802,714 photos uploaded!

WunderBlogs® & News

Nearby

Air Quality

  Air Quality AQ Index Pollutant
Not available.

Snow Depth

Station Depth Elevation

Earthquake Activity

City Distance Mag. Time & Date
Minimum magnitude displayed is 2.5.

Coastal Water Temperatures

Place Temperature

Nearby Weather Stations